Terminal Aerodrome Forecast
Issued by NWS

Home | Current Version | Previous Version | Graphics & Text | Print | Product List | Glossary On
Versions: 1 2 3 4 5 6 7 8 9 10 11 12 13 14 15 16 17 18 19
000
FTUS43 KIWX 140900 AAA
TAFSBN
TAF AMD
KSBN 140933Z 1410/1506 00000KT P6SM BKN045
     FM141400 22007KT P6SM SCT040
     FM150000 VRB03KT P6SM SCT200=

USA.gov is the U.S. government's official web portal to all federal, state and local government web resources and services.